Decoded Metar for LRCL (CLUJ-NAPOCA in ROMANIA) (IATA:CLJ) | Meteo·Mobile Aviation Weather
aviador You're here:

LRCL Decoded Metar

CLUJ-NAPOCA in ROMANIA
Report Time2018-12-10 10:00:00
UTC Time2018-12-10 10:26:47
Flight Rules ifr IFR
WindVRB at 02 kt
Visibility2500 m
Phenomena:Mist
Clouds:Few 005 Hf
Overcast 047 Hf
Expected CloudBase > 800 ft AGL from Temp-Dew spread
Ceiling4,700 ft
Temp03°C (ISA -9)
Dew Point01°C (87% RH)
AAT0.5°C
QNH1006 hPa
Density Alt564 ft
Elevation1,355 ft
Report Wrong Elevation
Raw Report
METAR LRCL 101000Z VRB02KT 2500 BR FEW005 OVC047 03/01 Q1006=

Extra information for LRCL:More info

Metar Taf Metar & Taf Last 4 Metars F.Rules Stats Wind Profile Meteogram Temp Stats Airport Information Weather charts Add Link Nearby VenuesMetar ALERT Operation Metar Decoded Social comments